sensor_id;sensor_type;location;lat;lon;timestamp;P1;durP1;ratioP1;P2;durP2;ratioP2
31660;SDS011;18267;52.234;7.444;2023-01-16T00:00:51;6.70;;;0.90;;
31660;SDS011;18267;52.234;7.444;2023-01-16T00:03:17;4.05;;;0.85;;
31660;SDS011;18267;52.234;7.444;2023-01-16T00:05:43;6.00;;;0.80;;
31660;SDS011;18267;52.234;7.444;2023-01-16T00:08:09;2.97;;;0.60;;
31660;SDS011;18267;52.234;7.444;2023-01-16T00:10:35;4.78;;;1.13;;
31660;SDS011;18267;52.234;7.444;2023-01-16T00:13:00;3.38;;;0.80;;
31660;SDS011;18267;52.234;7.444;2023-01-16T00:15:26;1.33;;;0.70;;
31660;SDS011;18267;52.234;7.444;2023-01-16T00:17:52;2.55;;;0.70;;
31660;SDS011;18267;52.234;7.444;2023-01-16T00:20:17;3.65;;;0.60;;
31660;SDS011;18267;52.234;7.444;2023-01-16T00:22:43;6.93;;;0.90;;
31660;SDS011;18267;52.234;7.444;2023-01-16T00:25:09;5.70;;;1.02;;
31660;SDS011;18267;52.234;7.444;2023-01-16T00:27:35;10.20;;;0.88;;
31660;SDS011;18267;52.234;7.444;2023-01-16T00:30:00;5.60;;;0.68;;
31660;SDS011;18267;52.234;7.444;2023-01-16T00:32:26;2.55;;;0.50;;
31660;SDS011;18267;52.234;7.444;2023-01-16T00:34:51;3.70;;;0.75;;
31660;SDS011;18267;52.234;7.444;2023-01-16T00:37:17;2.13;;;0.70;;
31660;SDS011;18267;52.234;7.444;2023-01-16T00:39:43;5.97;;;1.05;;
31660;SDS011;18267;52.234;7.444;2023-01-16T00:42:08;2.17;;;0.50;;
31660;SDS011;18267;52.234;7.444;2023-01-16T00:44:34;3.38;;;0.75;;
31660;SDS011;18267;52.234;7.444;2023-01-16T00:47:00;1.77;;;0.82;;
31660;SDS011;18267;52.234;7.444;2023-01-16T00:49:26;5.70;;;0.98;;
31660;SDS011;18267;52.234;7.444;2023-01-16T00:51:52;2.95;;;0.98;;
31660;SDS011;18267;52.234;7.444;2023-01-16T00:54:19;5.10;;;1.42;;
31660;SDS011;18267;52.234;7.444;2023-01-16T00:56:44;3.53;;;0.88;;
31660;SDS011;18267;52.234;7.444;2023-01-16T00:59:10;6.03;;;0.80;;
31660;SDS011;18267;52.234;7.444;2023-01-16T01:01:36;3.45;;;0.70;;
31660;SDS011;18267;52.234;7.444;2023-01-16T01:04:02;1.77;;;0.88;;
31660;SDS011;18267;52.234;7.444;2023-01-16T01:06:28;0.90;;;0.63;;
31660;SDS011;18267;52.234;7.444;2023-01-16T01:08:54;4.43;;;0.88;;
31660;SDS011;18267;52.234;7.444;2023-01-16T01:11:20;1.67;;;0.45;;
31660;SDS011;18267;52.234;7.444;2023-01-16T01:13:47;0.60;;;0.40;;
31660;SDS011;18267;52.234;7.444;2023-01-16T01:16:12;1.65;;;0.82;;
31660;SDS011;18267;52.234;7.444;2023-01-16T01:18:38;8.38;;;0.75;;
31660;SDS011;18267;52.234;7.444;2023-01-16T01:21:04;5.75;;;0.73;;
31660;SDS011;18267;52.234;7.444;2023-01-16T01:23:30;4.30;;;0.70;;
31660;SDS011;18267;52.234;7.444;2023-01-16T01:25:55;2.72;;;0.70;;
31660;SDS011;18267;52.234;7.444;2023-01-16T01:28:21;3.85;;;0.70;;
31660;SDS011;18267;52.234;7.444;2023-01-16T01:30:47;2.63;;;0.80;;
31660;SDS011;18267;52.234;7.444;2023-01-16T01:33:12;3.45;;;0.70;;
31660;SDS011;18267;52.234;7.444;2023-01-16T01:35:38;2.22;;;0.82;;
31660;SDS011;18267;52.234;7.444;2023-01-16T01:38:05;2.20;;;0.70;;
31660;SDS011;18267;52.234;7.444;2023-01-16T01:40:35;2.47;;;0.68;;
31660;SDS011;18267;52.234;7.444;2023-01-16T01:43:02;4.05;;;1.10;;
31660;SDS011;18267;52.234;7.444;2023-01-16T01:45:34;1.40;;;0.75;;
31660;SDS011;18267;52.234;7.444;2023-01-16T01:48:15;2.45;;;0.65;;
31660;SDS011;18267;52.234;7.444;2023-01-16T01:51:04;7.07;;;0.95;;
31660;SDS011;18267;52.234;7.444;2023-01-16T01:53:41;3.78;;;0.80;;
31660;SDS011;18267;52.234;7.444;2023-01-16T01:56:16;7.22;;;0.80;;
31660;SDS011;18267;52.234;7.444;2023-01-16T01:58:44;1.83;;;0.75;;
31660;SDS011;18267;52.234;7.444;2023-01-16T02:01:16;3.35;;;0.90;;
31660;SDS011;18267;52.234;7.444;2023-01-16T02:03:43;3.50;;;0.70;;
31660;SDS011;18267;52.234;7.444;2023-01-16T02:06:34;1.65;;;0.65;;
31660;SDS011;18267;52.234;7.444;2023-01-16T02:09:12;4.55;;;0.80;;
31660;SDS011;18267;52.234;7.444;2023-01-16T02:11:56;9.73;;;1.33;;
31660;SDS011;18267;52.234;7.444;2023-01-16T02:14:34;6.35;;;0.98;;
31660;SDS011;18267;52.234;7.444;2023-01-16T02:17:10;9.18;;;1.02;;
31660;SDS011;18267;52.234;7.444;2023-01-16T02:23:04;2.63;;;0.80;;
31660;SDS011;18267;52.234;7.444;2023-01-16T02:31:31;2.85;;;1.20;;
31660;SDS011;18267;52.234;7.444;2023-01-16T02:49:38;2.75;;;0.95;;
31660;SDS011;18267;52.234;7.444;2023-01-16T02:53:21;2.03;;;0.98;;
31660;SDS011;18267;52.234;7.444;2023-01-16T02:56:08;4.93;;;1.38;;
31660;SDS011;18267;52.234;7.444;2023-01-16T02:58:43;2.75;;;0.93;;
31660;SDS011;18267;52.234;7.444;2023-01-16T03:01:12;1.65;;;1.10;;
31660;SDS011;18267;52.234;7.444;2023-01-16T03:06:30;3.03;;;0.60;;
31660;SDS011;18267;52.234;7.444;2023-01-16T03:12:54;5.10;;;0.60;;
31660;SDS011;18267;52.234;7.444;2023-01-16T03:16:01;1.88;;;0.30;;
31660;SDS011;18267;52.234;7.444;2023-01-16T03:21:10;2.28;;;0.52;;
31660;SDS011;18267;52.234;7.444;2023-01-16T03:23:49;0.93;;;0.60;;
31660;SDS011;18267;52.234;7.444;2023-01-16T03:26:23;6.60;;;0.60;;
31660;SDS011;18267;52.234;7.444;2023-01-16T03:32:02;1.73;;;0.47;;
31660;SDS011;18267;52.234;7.444;2023-01-16T03:35:01;5.88;;;0.80;;
31660;SDS011;18267;52.234;7.444;2023-01-16T03:37:35;2.95;;;0.60;;
31660;SDS011;18267;52.234;7.444;2023-01-16T03:40:22;2.97;;;0.63;;
31660;SDS011;18267;52.234;7.444;2023-01-16T03:43:08;2.78;;;0.88;;
31660;SDS011;18267;52.234;7.444;2023-01-16T03:45:45;0.90;;;0.50;;
31660;SDS011;18267;52.234;7.444;2023-01-16T03:50:57;2.42;;;0.40;;
31660;SDS011;18267;52.234;7.444;2023-01-16T03:53:29;2.25;;;0.60;;
31660;SDS011;18267;52.234;7.444;2023-01-16T03:58:34;2.95;;;1.00;;
31660;SDS011;18267;52.234;7.444;2023-01-16T04:03:41;2.90;;;0.47;;
31660;SDS011;18267;52.234;7.444;2023-01-16T04:06:26;2.00;;;0.60;;
31660;SDS011;18267;52.234;7.444;2023-01-16T04:08:55;1.38;;;0.68;;
31660;SDS011;18267;52.234;7.444;2023-01-16T04:11:24;5.68;;;0.75;;
31660;SDS011;18267;52.234;7.444;2023-01-16T04:13:54;5.85;;;0.88;;
31660;SDS011;18267;52.234;7.444;2023-01-16T04:16:23;5.72;;;1.10;;
31660;SDS011;18267;52.234;7.444;2023-01-16T04:18:51;3.35;;;0.80;;
31660;SDS011;18267;52.234;7.444;2023-01-16T04:21:25;2.25;;;1.15;;
31660;SDS011;18267;52.234;7.444;2023-01-16T04:23:56;2.42;;;0.90;;
31660;SDS011;18267;52.234;7.444;2023-01-16T04:26:24;2.38;;;0.73;;
31660;SDS011;18267;52.234;7.444;2023-01-16T04:28:52;7.70;;;1.30;;
31660;SDS011;18267;52.234;7.444;2023-01-16T04:31:21;1.90;;;1.00;;
31660;SDS011;18267;52.234;7.444;2023-01-16T04:33:54;3.03;;;1.08;;
31660;SDS011;18267;52.234;7.444;2023-01-16T04:36:26;5.05;;;2.15;;
31660;SDS011;18267;52.234;7.444;2023-01-16T04:38:56;3.05;;;1.05;;
31660;SDS011;18267;52.234;7.444;2023-01-16T04:41:22;4.32;;;1.40;;
31660;SDS011;18267;52.234;7.444;2023-01-16T04:44:16;9.13;;;1.40;;
31660;SDS011;18267;52.234;7.444;2023-01-16T04:46:49;4.57;;;1.20;;
31660;SDS011;18267;52.234;7.444;2023-01-16T04:49:17;5.97;;;1.08;;
31660;SDS011;18267;52.234;7.444;2023-01-16T04:51:44;0.90;;;0.70;;
31660;SDS011;18267;52.234;7.444;2023-01-16T04:54:13;4.45;;;1.45;;
31660;SDS011;18267;52.234;7.444;2023-01-16T04:56:41;4.22;;;1.23;;
31660;SDS011;18267;52.234;7.444;2023-01-16T04:59:07;8.63;;;1.15;;
31660;SDS011;18267;52.234;7.444;2023-01-16T05:01:33;3.45;;;1.00;;
31660;SDS011;18267;52.234;7.444;2023-01-16T05:04:03;2.70;;;1.08;;
31660;SDS011;18267;52.234;7.444;2023-01-16T05:06:30;3.13;;;1.08;;
31660;SDS011;18267;52.234;7.444;2023-01-16T05:08:56;8.88;;;1.42;;
31660;SDS011;18267;52.234;7.444;2023-01-16T05:11:21;5.60;;;1.20;;
31660;SDS011;18267;52.234;7.444;2023-01-16T05:13:47;7.88;;;1.35;;
31660;SDS011;18267;52.234;7.444;2023-01-16T05:16:12;4.07;;;1.00;;
31660;SDS011;18267;52.234;7.444;2023-01-16T05:18:38;1.67;;;0.95;;
31660;SDS011;18267;52.234;7.444;2023-01-16T05:21:03;4.22;;;1.23;;
31660;SDS011;18267;52.234;7.444;2023-01-16T05:23:29;4.70;;;0.90;;
31660;SDS011;18267;52.234;7.444;2023-01-16T05:25:58;4.78;;;1.10;;
31660;SDS011;18267;52.234;7.444;2023-01-16T05:28:24;1.77;;;0.80;;
31660;SDS011;18267;52.234;7.444;2023-01-16T05:30:50;6.32;;;1.10;;
31660;SDS011;18267;52.234;7.444;2023-01-16T05:33:16;2.10;;;1.00;;
31660;SDS011;18267;52.234;7.444;2023-01-16T05:35:42;7.13;;;1.45;;
31660;SDS011;18267;52.234;7.444;2023-01-16T05:38:07;2.40;;;1.08;;
31660;SDS011;18267;52.234;7.444;2023-01-16T05:40:33;9.90;;;0.93;;
31660;SDS011;18267;52.234;7.444;2023-01-16T05:42:58;7.35;;;1.20;;
31660;SDS011;18267;52.234;7.444;2023-01-16T05:45:24;3.85;;;0.85;;
31660;SDS011;18267;52.234;7.444;2023-01-16T05:47:49;1.48;;;0.50;;
31660;SDS011;18267;52.234;7.444;2023-01-16T05:50:15;2.50;;;0.68;;
31660;SDS011;18267;52.234;7.444;2023-01-16T05:52:40;3.10;;;1.10;;
31660;SDS011;18267;52.234;7.444;2023-01-16T05:55:06;2.15;;;0.60;;
31660;SDS011;18267;52.234;7.444;2023-01-16T05:57:32;2.05;;;0.85;;
31660;SDS011;18267;52.234;7.444;2023-01-16T05:59:57;3.38;;;0.80;;
31660;SDS011;18267;52.234;7.444;2023-01-16T06:02:23;3.80;;;0.80;;
31660;SDS011;18267;52.234;7.444;2023-01-16T06:04:48;6.38;;;1.15;;
31660;SDS011;18267;52.234;7.444;2023-01-16T06:07:14;3.35;;;0.85;;
31660;SDS011;18267;52.234;7.444;2023-01-16T06:09:40;2.33;;;0.82;;
31660;SDS011;18267;52.234;7.444;2023-01-16T06:12:06;2.63;;;0.60;;
31660;SDS011;18267;52.234;7.444;2023-01-16T06:14:34;4.05;;;0.77;;
31660;SDS011;18267;52.234;7.444;2023-01-16T06:17:00;4.03;;;0.50;;
31660;SDS011;18267;52.234;7.444;2023-01-16T06:19:26;3.85;;;0.80;;
31660;SDS011;18267;52.234;7.444;2023-01-16T06:21:51;1.55;;;0.52;;
31660;SDS011;18267;52.234;7.444;2023-01-16T06:24:17;0.40;;;0.40;;
31660;SDS011;18267;52.234;7.444;2023-01-16T06:26:42;8.60;;;1.13;;
31660;SDS011;18267;52.234;7.444;2023-01-16T06:29:08;8.80;;;0.70;;
31660;SDS011;18267;52.234;7.444;2023-01-16T06:31:35;1.80;;;0.68;;
31660;SDS011;18267;52.234;7.444;2023-01-16T06:34:01;1.20;;;0.50;;
31660;SDS011;18267;52.234;7.444;2023-01-16T06:36:26;5.28;;;0.73;;
31660;SDS011;18267;52.234;7.444;2023-01-16T06:38:52;1.70;;;0.70;;
31660;SDS011;18267;52.234;7.444;2023-01-16T06:41:18;1.42;;;0.40;;
31660;SDS011;18267;52.234;7.444;2023-01-16T06:43:43;2.90;;;0.55;;
31660;SDS011;18267;52.234;7.444;2023-01-16T06:46:09;4.03;;;0.63;;
31660;SDS011;18267;52.234;7.444;2023-01-16T06:48:34;4.68;;;0.85;;
31660;SDS011;18267;52.234;7.444;2023-01-16T06:51:00;2.55;;;0.60;;
31660;SDS011;18267;52.234;7.444;2023-01-16T06:53:26;2.20;;;0.63;;
31660;SDS011;18267;52.234;7.444;2023-01-16T06:55:51;0.65;;;0.45;;
31660;SDS011;18267;52.234;7.444;2023-01-16T06:58:17;1.73;;;0.50;;
31660;SDS011;18267;52.234;7.444;2023-01-16T07:00:42;2.15;;;0.63;;
31660;SDS011;18267;52.234;7.444;2023-01-16T07:03:09;2.08;;;0.38;;
31660;SDS011;18267;52.234;7.444;2023-01-16T07:05:35;1.60;;;0.45;;
31660;SDS011;18267;52.234;7.444;2023-01-16T07:08:00;1.05;;;0.20;;
31660;SDS011;18267;52.234;7.444;2023-01-16T07:10:26;3.72;;;0.52;;
31660;SDS011;18267;52.234;7.444;2023-01-16T07:12:52;0.70;;;0.45;;
31660;SDS011;18267;52.234;7.444;2023-01-16T07:15:18;1.38;;;0.30;;
31660;SDS011;18267;52.234;7.444;2023-01-16T07:18:02;0.30;;;0.17;;
31660;SDS011;18267;52.234;7.444;2023-01-16T07:20:57;0.93;;;0.30;;
31660;SDS011;18267;52.234;7.444;2023-01-16T07:23:43;0.52;;;0.30;;
31660;SDS011;18267;52.234;7.444;2023-01-16T07:26:12;0.82;;;0.30;;
31660;SDS011;18267;52.234;7.444;2023-01-16T07:28:39;2.15;;;0.57;;
31660;SDS011;18267;52.234;7.444;2023-01-16T07:31:05;4.18;;;0.20;;
31660;SDS011;18267;52.234;7.444;2023-01-16T07:33:32;2.08;;;0.35;;
31660;SDS011;18267;52.234;7.444;2023-01-16T07:35:58;0.93;;;0.50;;
31660;SDS011;18267;52.234;7.444;2023-01-16T07:38:23;4.25;;;0.30;;
31660;SDS011;18267;52.234;7.444;2023-01-16T07:40:49;4.80;;;0.57;;
31660;SDS011;18267;52.234;7.444;2023-01-16T07:43:14;2.90;;;0.50;;
31660;SDS011;18267;52.234;7.444;2023-01-16T07:45:40;2.65;;;0.45;;
31660;SDS011;18267;52.234;7.444;2023-01-16T07:48:06;2.65;;;0.63;;
31660;SDS011;18267;52.234;7.444;2023-01-16T07:50:31;2.38;;;0.32;;
31660;SDS011;18267;52.234;7.444;2023-01-16T07:52:57;3.55;;;0.38;;
31660;SDS011;18267;52.234;7.444;2023-01-16T07:55:22;2.05;;;0.40;;
31660;SDS011;18267;52.234;7.444;2023-01-16T07:57:48;1.50;;;0.30;;
31660;SDS011;18267;52.234;7.444;2023-01-16T08:00:14;3.85;;;0.45;;
31660;SDS011;18267;52.234;7.444;2023-01-16T08:02:40;3.35;;;0.30;;
31660;SDS011;18267;52.234;7.444;2023-01-16T08:05:06;0.88;;;0.20;;
31660;SDS011;18267;52.234;7.444;2023-01-16T08:07:33;0.73;;;0.30;;
31660;SDS011;18267;52.234;7.444;2023-01-16T08:09:58;1.30;;;0.50;;
31660;SDS011;18267;52.234;7.444;2023-01-16T08:12:24;2.08;;;0.52;;
31660;SDS011;18267;52.234;7.444;2023-01-16T08:14:49;1.92;;;0.40;;
31660;SDS011;18267;52.234;7.444;2023-01-16T08:17:15;1.05;;;0.43;;
31660;SDS011;18267;52.234;7.444;2023-01-16T08:19:40;0.40;;;0.40;;
31660;SDS011;18267;52.234;7.444;2023-01-16T08:22:06;0.90;;;0.20;;
31660;SDS011;18267;52.234;7.444;2023-01-16T08:24:31;0.65;;;0.30;;
31660;SDS011;18267;52.234;7.444;2023-01-16T08:26:57;0.50;;;0.38;;
31660;SDS011;18267;52.234;7.444;2023-01-16T08:29:23;1.42;;;0.40;;
31660;SDS011;18267;52.234;7.444;2023-01-16T08:31:49;3.60;;;0.68;;
31660;SDS011;18267;52.234;7.444;2023-01-16T08:34:14;0.70;;;0.35;;
31660;SDS011;18267;52.234;7.444;2023-01-16T08:36:40;0.52;;;0.38;;
31660;SDS011;18267;52.234;7.444;2023-01-16T08:39:07;1.60;;;0.57;;
31660;SDS011;18267;52.234;7.444;2023-01-16T08:41:34;1.23;;;0.40;;
31660;SDS011;18267;52.234;7.444;2023-01-16T08:44:18;0.85;;;0.43;;
31660;SDS011;18267;52.234;7.444;2023-01-16T08:47:10;1.60;;;0.30;;
31660;SDS011;18267;52.234;7.444;2023-01-16T08:49:57;3.08;;;0.20;;
31660;SDS011;18267;52.234;7.444;2023-01-16T08:52:42;1.85;;;0.20;;
31660;SDS011;18267;52.234;7.444;2023-01-16T08:55:09;3.55;;;0.60;;
31660;SDS011;18267;52.234;7.444;2023-01-16T08:57:35;4.97;;;0.50;;
31660;SDS011;18267;52.234;7.444;2023-01-16T09:00:00;2.65;;;0.22;;
31660;SDS011;18267;52.234;7.444;2023-01-16T09:02:27;1.42;;;0.57;;
31660;SDS011;18267;52.234;7.444;2023-01-16T09:04:53;2.17;;;0.50;;
31660;SDS011;18267;52.234;7.444;2023-01-16T09:07:19;1.88;;;0.25;;
31660;SDS011;18267;52.234;7.444;2023-01-16T09:09:46;1.33;;;0.45;;
31660;SDS011;18267;52.234;7.444;2023-01-16T09:12:12;1.17;;;0.50;;
31660;SDS011;18267;52.234;7.444;2023-01-16T09:14:57;1.77;;;0.40;;
31660;SDS011;18267;52.234;7.444;2023-01-16T09:17:24;0.85;;;0.35;;
31660;SDS011;18267;52.234;7.444;2023-01-16T09:19:51;0.68;;;0.30;;
31660;SDS011;18267;52.234;7.444;2023-01-16T09:22:17;0.38;;;0.32;;
31660;SDS011;18267;52.234;7.444;2023-01-16T09:24:45;1.88;;;0.50;;
31660;SDS011;18267;52.234;7.444;2023-01-16T09:27:14;1.35;;;0.50;;
31660;SDS011;18267;52.234;7.444;2023-01-16T09:30:11;2.75;;;0.77;;
31660;SDS011;18267;52.234;7.444;2023-01-16T09:33:15;1.20;;;0.60;;
31660;SDS011;18267;52.234;7.444;2023-01-16T09:35:42;0.95;;;0.40;;
31660;SDS011;18267;52.234;7.444;2023-01-16T09:38:09;1.27;;;0.80;;
31660;SDS011;18267;52.234;7.444;2023-01-16T09:40:35;2.45;;;0.68;;
31660;SDS011;18267;52.234;7.444;2023-01-16T09:48:46;1.23;;;0.40;;
31660;SDS011;18267;52.234;7.444;2023-01-16T09:51:18;1.48;;;0.55;;
31660;SDS011;18267;52.234;7.444;2023-01-16T09:56:40;3.63;;;0.60;;
31660;SDS011;18267;52.234;7.444;2023-01-16T10:01:52;1.35;;;0.98;;
31660;SDS011;18267;52.234;7.444;2023-01-16T10:04:22;1.95;;;0.60;;
31660;SDS011;18267;52.234;7.444;2023-01-16T10:07:06;2.53;;;0.80;;
31660;SDS011;18267;52.234;7.444;2023-01-16T10:12:13;2.17;;;0.50;;
31660;SDS011;18267;52.234;7.444;2023-01-16T10:17:18;1.00;;;0.35;;
31660;SDS011;18267;52.234;7.444;2023-01-16T10:20:05;3.30;;;0.57;;
31660;SDS011;18267;52.234;7.444;2023-01-16T10:25:46;0.70;;;0.60;;
31660;SDS011;18267;52.234;7.444;2023-01-16T10:28:25;2.70;;;0.40;;
31660;SDS011;18267;52.234;7.444;2023-01-16T10:31:08;2.65;;;0.70;;
31660;SDS011;18267;52.234;7.444;2023-01-16T10:34:14;2.90;;;0.60;;
31660;SDS011;18267;52.234;7.444;2023-01-16T10:36:32;4.55;;;0.63;;
31660;SDS011;18267;52.234;7.444;2023-01-16T10:39:03;2.33;;;0.47;;
31660;SDS011;18267;52.234;7.444;2023-01-16T10:41:30;0.88;;;0.60;;
31660;SDS011;18267;52.234;7.444;2023-01-16T10:44:36;2.55;;;0.43;;
31660;SDS011;18267;52.234;7.444;2023-01-16T10:47:33;1.45;;;0.50;;
31660;SDS011;18267;52.234;7.444;2023-01-16T10:50:19;1.80;;;0.50;;
31660;SDS011;18267;52.234;7.444;2023-01-16T10:52:47;1.70;;;0.50;;
31660;SDS011;18267;52.234;7.444;2023-01-16T10:55:13;3.33;;;0.65;;
31660;SDS011;18267;52.234;7.444;2023-01-16T10:57:43;2.17;;;0.60;;
31660;SDS011;18267;52.234;7.444;2023-01-16T11:00:19;2.67;;;0.47;;
31660;SDS011;18267;52.234;7.444;2023-01-16T11:02:52;1.70;;;0.65;;
31660;SDS011;18267;52.234;7.444;2023-01-16T11:07:48;2.33;;;0.63;;
31660;SDS011;18267;52.234;7.444;2023-01-16T11:10:16;3.75;;;0.30;;
31660;SDS011;18267;52.234;7.444;2023-01-16T11:12:42;0.60;;;0.45;;
31660;SDS011;18267;52.234;7.444;2023-01-16T11:15:26;1.15;;;0.35;;
31660;SDS011;18267;52.234;7.444;2023-01-16T11:18:27;0.57;;;0.40;;
31660;SDS011;18267;52.234;7.444;2023-01-16T11:20:56;3.67;;;0.93;;
31660;SDS011;18267;52.234;7.444;2023-01-16T11:23:34;1.50;;;0.80;;
31660;SDS011;18267;52.234;7.444;2023-01-16T11:26:02;0.80;;;0.35;;
31660;SDS011;18267;52.234;7.444;2023-01-16T11:28:30;1.42;;;0.55;;
31660;SDS011;18267;52.234;7.444;2023-01-16T11:30:59;6.20;;;0.57;;
31660;SDS011;18267;52.234;7.444;2023-01-16T11:33:32;5.97;;;0.65;;
31660;SDS011;18267;52.234;7.444;2023-01-16T11:36:10;0.90;;;0.43;;
31660;SDS011;18267;52.234;7.444;2023-01-16T11:38:42;6.40;;;1.00;;
31660;SDS011;18267;52.234;7.444;2023-01-16T11:41:10;2.65;;;0.80;;
31660;SDS011;18267;52.234;7.444;2023-01-16T11:43:38;6.90;;;0.90;;
31660;SDS011;18267;52.234;7.444;2023-01-16T11:46:33;1.60;;;0.52;;
31660;SDS011;18267;52.234;7.444;2023-01-16T11:49:15;1.45;;;0.43;;
31660;SDS011;18267;52.234;7.444;2023-01-16T11:51:52;0.95;;;0.35;;
31660;SDS011;18267;52.234;7.444;2023-01-16T11:54:27;0.68;;;0.20;;
31660;SDS011;18267;52.234;7.444;2023-01-16T11:57:12;1.02;;;0.40;;
31660;SDS011;18267;52.234;7.444;2023-01-16T12:05:34;0.45;;;0.20;;
31660;SDS011;18267;52.234;7.444;2023-01-16T12:35:58;1.08;;;0.38;;
31660;SDS011;18267;52.234;7.444;2023-01-16T12:38:48;1.00;;;0.40;;
31660;SDS011;18267;52.234;7.444;2023-01-16T12:41:27;1.08;;;0.70;;
31660;SDS011;18267;52.234;7.444;2023-01-16T12:44:41;1.02;;;0.30;;
31660;SDS011;18267;52.234;7.444;2023-01-16T12:47:32;1.98;;;0.35;;
31660;SDS011;18267;52.234;7.444;2023-01-16T12:58:57;0.55;;;0.30;;
31660;SDS011;18267;52.234;7.444;2023-01-16T13:01:48;2.60;;;0.28;;
31660;SDS011;18267;52.234;7.444;2023-01-16T13:04:16;1.30;;;0.40;;
31660;SDS011;18267;52.234;7.444;2023-01-16T13:06:47;0.75;;;0.45;;
31660;SDS011;18267;52.234;7.444;2023-01-16T13:11:59;0.20;;;0.20;;
31660;SDS011;18267;52.234;7.444;2023-01-16T13:14:53;0.82;;;0.28;;
31660;SDS011;18267;52.234;7.444;2023-01-16T13:17:23;0.88;;;0.40;;
31660;SDS011;18267;52.234;7.444;2023-01-16T13:19:52;1.35;;;0.30;;
31660;SDS011;18267;52.234;7.444;2023-01-16T13:22:26;1.30;;;0.30;;
31660;SDS011;18267;52.234;7.444;2023-01-16T13:24:59;0.60;;;0.28;;
31660;SDS011;18267;52.234;7.444;2023-01-16T13:27:39;0.30;;;0.10;;
31660;SDS011;18267;52.234;7.444;2023-01-16T13:30:09;8.15;;;0.40;;
31660;SDS011;18267;52.234;7.444;2023-01-16T13:32:55;0.50;;;0.30;;
31660;SDS011;18267;52.234;7.444;2023-01-16T13:38:10;0.57;;;0.20;;
31660;SDS011;18267;52.234;7.444;2023-01-16T13:40:53;0.70;;;0.25;;
31660;SDS011;18267;52.234;7.444;2023-01-16T13:43:45;3.20;;;0.40;;
31660;SDS011;18267;52.234;7.444;2023-01-16T13:46:37;0.60;;;0.20;;
31660;SDS011;18267;52.234;7.444;2023-01-16T13:49:04;0.93;;;0.20;;
31660;SDS011;18267;52.234;7.444;2023-01-16T13:51:30;0.70;;;0.40;;
31660;SDS011;18267;52.234;7.444;2023-01-16T13:54:09;0.20;;;0.20;;
31660;SDS011;18267;52.234;7.444;2023-01-16T13:56:40;0.65;;;0.20;;
31660;SDS011;18267;52.234;7.444;2023-01-16T13:59:07;0.32;;;0.30;;
31660;SDS011;18267;52.234;7.444;2023-01-16T14:06:47;0.63;;;0.20;;
31660;SDS011;18267;52.234;7.444;2023-01-16T14:12:41;0.57;;;0.50;;
31660;SDS011;18267;52.234;7.444;2023-01-16T14:15:15;0.50;;;0.20;;
31660;SDS011;18267;52.234;7.444;2023-01-16T14:18:13;2.58;;;0.30;;
31660;SDS011;18267;52.234;7.444;2023-01-16T14:20:43;1.00;;;0.50;;
31660;SDS011;18267;52.234;7.444;2023-01-16T14:26:16;2.40;;;0.60;;
31660;SDS011;18267;52.234;7.444;2023-01-16T14:29:04;0.35;;;0.35;;
31660;SDS011;18267;52.234;7.444;2023-01-16T14:31:40;0.40;;;0.40;;
31660;SDS011;18267;52.234;7.444;2023-01-16T14:34:55;3.05;;;0.55;;
31660;SDS011;18267;52.234;7.444;2023-01-16T14:37:23;0.20;;;0.20;;
31660;SDS011;18267;52.234;7.444;2023-01-16T14:39:52;0.20;;;0.20;;
31660;SDS011;18267;52.234;7.444;2023-01-16T14:45:34;3.55;;;0.40;;
31660;SDS011;18267;52.234;7.444;2023-01-16T14:53:57;0.70;;;0.32;;
31660;SDS011;18267;52.234;7.444;2023-01-16T14:56:44;0.30;;;0.30;;
31660;SDS011;18267;52.234;7.444;2023-01-16T14:59:15;0.40;;;0.40;;
31660;SDS011;18267;52.234;7.444;2023-01-16T15:04:54;2.15;;;0.50;;
31660;SDS011;18267;52.234;7.444;2023-01-16T15:07:24;1.02;;;0.40;;
31660;SDS011;18267;52.234;7.444;2023-01-16T15:10:00;1.65;;;0.30;;
31660;SDS011;18267;52.234;7.444;2023-01-16T15:12:38;0.80;;;0.32;;
31660;SDS011;18267;52.234;7.444;2023-01-16T15:15:15;0.63;;;0.30;;
31660;SDS011;18267;52.234;7.444;2023-01-16T15:17:48;1.42;;;0.47;;
31660;SDS011;18267;52.234;7.444;2023-01-16T15:20:35;1.58;;;0.32;;
31660;SDS011;18267;52.234;7.444;2023-01-16T15:31:36;0.30;;;0.20;;
31660;SDS011;18267;52.234;7.444;2023-01-16T15:36:48;1.50;;;0.43;;
31660;SDS011;18267;52.234;7.444;2023-01-16T15:39:41;0.52;;;0.38;;
31660;SDS011;18267;52.234;7.444;2023-01-16T15:42:14;0.43;;;0.32;;
31660;SDS011;18267;52.234;7.444;2023-01-16T15:45:00;0.93;;;0.40;;
31660;SDS011;18267;52.234;7.444;2023-01-16T15:53:25;0.40;;;0.20;;
31660;SDS011;18267;52.234;7.444;2023-01-16T15:56:01;0.50;;;0.20;;
31660;SDS011;18267;52.234;7.444;2023-01-16T15:58:32;0.95;;;0.50;;
31660;SDS011;18267;52.234;7.444;2023-01-16T16:01:01;1.08;;;0.52;;
31660;SDS011;18267;52.234;7.444;2023-01-16T16:03:29;1.15;;;0.38;;
31660;SDS011;18267;52.234;7.444;2023-01-16T16:06:03;0.93;;;0.30;;
31660;SDS011;18267;52.234;7.444;2023-01-16T16:08:42;0.75;;;0.45;;
31660;SDS011;18267;52.234;7.444;2023-01-16T16:14:04;3.22;;;0.47;;
31660;SDS011;18267;52.234;7.444;2023-01-16T16:17:04;0.38;;;0.30;;
31660;SDS011;18267;52.234;7.444;2023-01-16T16:22:49;1.58;;;0.40;;
31660;SDS011;18267;52.234;7.444;2023-01-16T16:25:20;0.35;;;0.35;;
31660;SDS011;18267;52.234;7.444;2023-01-16T16:27:53;0.85;;;0.47;;
31660;SDS011;18267;52.234;7.444;2023-01-16T16:30:22;2.83;;;0.52;;
31660;SDS011;18267;52.234;7.444;2023-01-16T16:32:50;3.80;;;0.68;;
31660;SDS011;18267;52.234;7.444;2023-01-16T16:35:18;1.05;;;0.80;;
31660;SDS011;18267;52.234;7.444;2023-01-16T16:37:49;11.45;;;0.90;;
31660;SDS011;18267;52.234;7.444;2023-01-16T16:40:15;3.17;;;0.50;;
31660;SDS011;18267;52.234;7.444;2023-01-16T16:47:41;1.20;;;0.65;;
31660;SDS011;18267;52.234;7.444;2023-01-16T16:53:02;0.60;;;0.50;;
31660;SDS011;18267;52.234;7.444;2023-01-16T16:55:44;0.43;;;0.43;;
31660;SDS011;18267;52.234;7.444;2023-01-16T16:58:15;0.45;;;0.43;;
31660;SDS011;18267;52.234;7.444;2023-01-16T17:00:49;0.63;;;0.50;;
31660;SDS011;18267;52.234;7.444;2023-01-16T17:03:18;0.75;;;0.65;;
31660;SDS011;18267;52.234;7.444;2023-01-16T17:05:46;0.83;;;0.57;;
31660;SDS011;18267;52.234;7.444;2023-01-16T17:08:23;0.50;;;0.50;;
31660;SDS011;18267;52.234;7.444;2023-01-16T17:10:53;0.40;;;0.40;;
31660;SDS011;18267;52.234;7.444;2023-01-16T17:13:20;1.65;;;0.60;;
31660;SDS011;18267;52.234;7.444;2023-01-16T17:15:48;1.00;;;0.60;;
31660;SDS011;18267;52.234;7.444;2023-01-16T17:18:17;5.32;;;0.50;;
31660;SDS011;18267;52.234;7.444;2023-01-16T17:20:43;0.68;;;0.68;;
31660;SDS011;18267;52.234;7.444;2023-01-16T17:23:15;0.55;;;0.55;;
31660;SDS011;18267;52.234;7.444;2023-01-16T17:25:42;0.63;;;0.63;;
31660;SDS011;18267;52.234;7.444;2023-01-16T17:28:11;0.47;;;0.47;;
31660;SDS011;18267;52.234;7.444;2023-01-16T17:30:38;2.65;;;0.70;;
31660;SDS011;18267;52.234;7.444;2023-01-16T17:33:05;0.50;;;0.50;;
31660;SDS011;18267;52.234;7.444;2023-01-16T17:35:41;0.90;;;0.75;;
31660;SDS011;18267;52.234;7.444;2023-01-16T17:38:09;1.55;;;0.75;;
31660;SDS011;18267;52.234;7.444;2023-01-16T17:40:37;2.75;;;0.70;;
31660;SDS011;18267;52.234;7.444;2023-01-16T17:43:03;2.00;;;0.80;;
31660;SDS011;18267;52.234;7.444;2023-01-16T17:45:48;0.60;;;0.32;;
31660;SDS011;18267;52.234;7.444;2023-01-16T17:48:17;1.25;;;1.02;;
31660;SDS011;18267;52.234;7.444;2023-01-16T17:50:46;0.60;;;0.60;;
31660;SDS011;18267;52.234;7.444;2023-01-16T17:53:12;1.83;;;1.40;;
31660;SDS011;18267;52.234;7.444;2023-01-16T17:55:40;2.97;;;2.33;;
31660;SDS011;18267;52.234;7.444;2023-01-16T17:58:18;1.70;;;1.60;;
31660;SDS011;18267;52.234;7.444;2023-01-16T18:01:08;2.38;;;1.60;;
31660;SDS011;18267;52.234;7.444;2023-01-16T18:03:36;2.28;;;1.45;;
31660;SDS011;18267;52.234;7.444;2023-01-16T18:06:02;1.48;;;1.38;;